createdAt,value
2023-06-21T00:01:18.238Z,92
2023-06-21T00:04:18.230Z,92.2
2023-06-21T00:07:18.222Z,92.4
2023-06-21T00:10:18.275Z,92.7
2023-06-21T00:13:18.245Z,93
2023-06-21T00:16:18.231Z,93
2023-06-21T00:19:18.236Z,93.1
2023-06-21T00:22:18.228Z,93.4
2023-06-21T00:25:18.235Z,93.7
2023-06-21T00:28:18.234Z,93.5
2023-06-21T00:31:18.257Z,93.4
2023-06-21T00:34:18.238Z,93.1
2023-06-21T00:37:18.239Z,92.9
2023-06-21T00:40:18.234Z,92.9
2023-06-21T00:43:18.227Z,93.1
2023-06-21T00:46:18.259Z,92.9
2023-06-21T00:49:18.227Z,92.7
2023-06-21T00:52:18.237Z,92.6
2023-06-21T00:55:18.253Z,92.6
2023-06-21T00:58:18.247Z,92.3
2023-06-21T01:01:18.242Z,92.1
2023-06-21T01:04:18.242Z,92.2
2023-06-21T01:07:18.245Z,92.4
2023-06-21T01:10:18.244Z,92.5
2023-06-21T01:13:18.248Z,92.6
2023-06-21T01:16:18.254Z,92.8
2023-06-21T01:19:18.248Z,92.9
2023-06-21T01:22:18.250Z,93
2023-06-21T01:25:18.247Z,93.2
2023-06-21T01:28:18.267Z,93.2
2023-06-21T01:31:18.357Z,93.3
2023-06-21T01:34:18.305Z,93.6
2023-06-21T01:37:18.253Z,93.6
2023-06-21T01:40:18.254Z,93.8
2023-06-21T01:43:18.262Z,93.6
2023-06-21T01:46:18.315Z,93.6
2023-06-21T01:49:18.262Z,93.5
2023-06-21T01:52:18.260Z,93.7
2023-06-21T01:55:18.263Z,93.7
2023-06-21T01:58:18.284Z,93.7
2023-06-21T02:01:18.267Z,93.9
2023-06-21T02:04:18.272Z,94
2023-06-21T02:07:18.277Z,94.2
2023-06-21T02:10:18.278Z,94.5
2023-06-21T02:13:18.279Z,94.7
2023-06-21T02:16:18.281Z,94.7
2023-06-21T02:19:18.284Z,94.8
2023-06-21T02:22:18.286Z,95
2023-06-21T02:25:18.304Z,95.2
2023-06-21T02:28:18.290Z,95.3
2023-06-21T02:31:18.306Z,95.5
2023-06-21T02:34:18.314Z,95.7
2023-06-21T02:37:18.301Z,95.9
2023-06-21T02:40:18.313Z,96
2023-06-21T02:43:18.318Z,96.2
2023-06-21T02:46:18.342Z,96.4
2023-06-21T02:49:18.311Z,96.5
2023-06-21T02:52:18.320Z,96.6
2023-06-21T02:55:18.328Z,96.6
2023-06-21T02:58:18.327Z,96.3
2023-06-21T03:01:18.347Z,95.9
2023-06-21T03:04:18.335Z,95.3
2023-06-21T03:07:18.340Z,94.8
2023-06-21T03:10:18.340Z,94.3
2023-06-21T03:13:18.348Z,94.2
2023-06-21T03:16:18.344Z,94
2023-06-21T03:19:18.351Z,94
2023-06-21T03:22:18.363Z,94
2023-06-21T03:25:18.361Z,94.1
2023-06-21T03:28:18.366Z,94
2023-06-21T03:31:18.382Z,94
2023-06-21T03:34:18.415Z,94
2023-06-21T03:37:18.391Z,94
2023-06-21T03:40:18.391Z,94.1
2023-06-21T03:43:18.410Z,94
2023-06-21T03:46:18.431Z,94
2023-06-21T03:49:18.407Z,93.9
2023-06-21T03:52:18.430Z,93.9
2023-06-21T03:55:18.426Z,93.9
2023-06-21T03:58:18.426Z,93.8
2023-06-21T04:01:18.472Z,93.7
2023-06-21T04:04:18.462Z,93.6
2023-06-21T04:07:20.278Z,93.4
2023-06-21T04:10:18.463Z,93.1
2023-06-21T04:13:18.505Z,92.9
2023-06-21T04:16:18.482Z,92.7
2023-06-21T04:19:18.491Z,92.4
2023-06-21T04:22:18.495Z,92.1
2023-06-21T04:25:18.501Z,91.9
2023-06-21T04:28:18.504Z,91.6
2023-06-21T04:31:18.537Z,91.3
2023-06-21T04:34:18.513Z,91.2
2023-06-21T04:37:18.532Z,90.8
2023-06-21T04:40:19.098Z,90.7
2023-06-21T04:43:18.548Z,90.5
2023-06-21T04:46:18.674Z,89.5
2023-06-21T04:49:18.550Z,89.1
2023-06-21T04:52:18.564Z,89
2023-06-21T04:55:18.590Z,88.6
2023-06-21T04:58:18.571Z,88.8
2023-06-21T05:01:18.580Z,88.7
2023-06-21T05:04:18.585Z,88.9
2023-06-21T05:07:18.594Z,88.7
2023-06-21T05:10:18.601Z,88.3
2023-06-21T05:13:18.605Z,87.9
2023-06-21T05:16:18.631Z,87.8
2023-06-21T05:19:18.622Z,87.9
2023-06-21T05:22:18.625Z,87.7
2023-06-21T05:25:18.637Z,87.5
2023-06-21T05:28:18.648Z,87.2
2023-06-21T05:31:18.692Z,86.1
2023-06-21T05:34:18.673Z,85.4
2023-06-21T05:37:18.670Z,84.4
2023-06-21T05:40:18.676Z,84.1
2023-06-21T05:43:18.688Z,83.9
2023-06-21T05:46:18.726Z,83.3
2023-06-21T05:49:18.695Z,82.1
2023-06-21T05:52:18.703Z,80.9
2023-06-21T05:55:18.710Z,79.5
2023-06-21T05:58:18.724Z,79.2
2023-06-21T06:01:24.497Z,77.9
2023-06-21T06:04:18.741Z,76.9
2023-06-21T06:07:18.733Z,77.9
2023-06-21T06:10:18.755Z,77.8
2023-06-21T06:13:18.751Z,77.4
2023-06-21T06:16:18.755Z,76.8
2023-06-21T06:19:18.757Z,75.6
2023-06-21T06:22:18.766Z,76.2
2023-06-21T06:25:18.776Z,76.3
2023-06-21T06:28:18.791Z,75.7
2023-06-21T06:31:18.801Z,74.8
2023-06-21T06:34:18.787Z,74.2
2023-06-21T06:37:21.033Z,74.6
2023-06-21T06:40:18.804Z,75
2023-06-21T06:43:18.813Z,75
2023-06-21T06:46:18.801Z,72.5
2023-06-21T06:49:18.805Z,70.9
2023-06-21T06:52:18.825Z,70.9
2023-06-21T06:55:18.821Z,70.1
2023-06-21T06:58:18.820Z,69.4
2023-06-21T07:01:18.832Z,69
2023-06-21T07:04:18.930Z,67.8
2023-06-21T07:07:18.835Z,66.5
2023-06-21T07:10:20.425Z,64.6
2023-06-21T07:13:18.841Z,62.7
2023-06-21T07:16:18.845Z,62
2023-06-21T07:19:18.853Z,61.1
2023-06-21T07:22:18.854Z,60.6
2023-06-21T07:25:18.856Z,60.5
2023-06-21T07:28:18.858Z,60.6
2023-06-21T07:31:18.902Z,60.8
2023-06-21T07:34:18.869Z,61.2
2023-06-21T07:37:18.875Z,61.7
2023-06-21T07:40:18.868Z,59.6
2023-06-21T07:43:18.862Z,59
2023-06-21T07:46:18.910Z,60.3
2023-06-21T07:49:18.872Z,59.5
2023-06-21T07:52:18.874Z,59.5
2023-06-21T07:55:18.887Z,58.6
2023-06-21T07:58:18.886Z,58.2
2023-06-21T08:01:18.905Z,57.3
2023-06-21T08:04:18.980Z,57.4
2023-06-21T08:07:18.903Z,58
2023-06-21T08:10:18.901Z,57.5
2023-06-21T08:13:18.907Z,57.3
2023-06-21T08:16:18.929Z,57.1
2023-06-21T08:19:18.929Z,57.6
2023-06-21T08:22:18.946Z,56.6
2023-06-21T08:25:18.957Z,56.1
2023-06-21T08:28:18.965Z,55.7
2023-06-21T08:31:18.991Z,55.2
2023-06-21T08:34:18.987Z,54.1
2023-06-21T08:37:19.002Z,53.5
2023-06-21T08:40:19.016Z,53.5
2023-06-21T08:43:19.028Z,54.1
2023-06-21T08:46:19.103Z,55.1
2023-06-21T08:49:19.053Z,56.2
2023-06-21T08:52:19.057Z,56.6
2023-06-21T08:55:19.073Z,55.5
2023-06-21T08:58:19.088Z,54.6
2023-06-21T09:01:19.145Z,53.4
2023-06-21T09:04:19.305Z,53.1
2023-06-21T09:07:19.134Z,50.6
2023-06-21T09:10:19.138Z,51.1
2023-06-21T09:13:19.158Z,49.6
2023-06-21T09:16:19.174Z,48.8
2023-06-21T09:19:19.176Z,48.6
2023-06-21T09:22:19.195Z,49.4
2023-06-21T09:25:19.206Z,49.2
2023-06-21T09:28:19.231Z,48.8
2023-06-21T09:31:19.237Z,47.4
2023-06-21T09:34:19.237Z,48.2
2023-06-21T09:37:19.252Z,48.9
2023-06-21T09:40:19.304Z,48.1
2023-06-21T09:43:19.281Z,48.4
2023-06-21T09:46:19.288Z,47.2
2023-06-21T09:49:19.332Z,46.7
2023-06-21T09:52:19.317Z,47.4
2023-06-21T09:55:19.326Z,47.2
2023-06-21T09:58:19.343Z,47.5
2023-06-21T10:01:19.442Z,45.3
2023-06-21T10:04:19.477Z,46.3
2023-06-21T10:07:19.380Z,47.4
2023-06-21T10:10:19.400Z,46.6
2023-06-21T10:13:19.414Z,47.3
2023-06-21T10:16:19.428Z,47.7
2023-06-21T10:19:19.447Z,47.4
2023-06-21T10:22:19.460Z,47.2
2023-06-21T10:25:19.471Z,46.6
2023-06-21T10:28:19.491Z,46.3
2023-06-21T10:31:19.538Z,47
2023-06-21T10:34:19.524Z,47.3
2023-06-21T10:37:19.533Z,46.3
2023-06-21T10:40:19.571Z,47.3
2023-06-21T10:43:19.567Z,46.8
2023-06-21T10:46:19.614Z,47.1
2023-06-21T10:49:19.611Z,46.7
2023-06-21T10:52:19.627Z,46.4
2023-06-21T10:55:19.642Z,45.8
2023-06-21T10:58:19.668Z,44.5
2023-06-21T11:01:19.737Z,45.2
2023-06-21T11:04:19.724Z,45.5
2023-06-21T11:07:19.715Z,45.4
2023-06-21T11:10:19.741Z,45.1
2023-06-21T11:13:19.761Z,44.3
2023-06-21T11:16:19.777Z,43.5
2023-06-21T11:19:19.789Z,42.4
2023-06-21T11:22:19.833Z,42.5
2023-06-21T11:25:19.829Z,43.1
2023-06-21T11:28:19.857Z,44.1
2023-06-21T11:31:19.990Z,45.5
2023-06-21T11:34:19.890Z,46.5
2023-06-21T11:37:19.907Z,46.7
2023-06-21T11:40:20.192Z,47.2
2023-06-21T11:43:19.954Z,45.2
2023-06-21T11:46:20.000Z,44
2023-06-21T11:49:20.021Z,43.3
2023-06-21T11:52:20.007Z,44
2023-06-21T11:55:20.066Z,44
2023-06-21T11:58:20.091Z,44
2023-06-21T12:01:20.067Z,45.7
2023-06-21T12:04:20.199Z,46.2
2023-06-21T12:07:20.109Z,45.1
2023-06-21T12:10:20.127Z,46.1
2023-06-21T12:13:20.157Z,46.2
2023-06-21T12:16:20.201Z,44.9
2023-06-21T12:19:20.226Z,45.5
2023-06-21T12:22:20.269Z,45.7
2023-06-21T12:25:20.269Z,44.8
2023-06-21T12:28:20.327Z,44.7
2023-06-21T12:31:20.296Z,44.4
2023-06-21T12:34:20.333Z,43.9
2023-06-21T12:37:20.431Z,43.4
2023-06-21T12:40:20.410Z,42.5
2023-06-21T12:43:20.405Z,43
2023-06-21T12:46:20.416Z,41.8
2023-06-21T12:49:20.378Z,42.2
2023-06-21T12:52:20.412Z,43.8
2023-06-21T12:55:20.419Z,42.5
2023-06-21T12:58:20.449Z,42.5
2023-06-21T13:01:20.437Z,42.2
2023-06-21T13:04:20.637Z,42.3
2023-06-21T13:07:20.473Z,42.6
2023-06-21T13:10:20.462Z,42.7
2023-06-21T13:13:20.468Z,42.7
2023-06-21T13:16:20.476Z,43.5
2023-06-21T13:19:20.484Z,44.2
2023-06-21T13:22:20.496Z,44.9
2023-06-21T13:25:20.518Z,45.4
2023-06-21T13:28:20.499Z,43.9
2023-06-21T13:31:22.803Z,43.4
2023-06-21T13:34:20.497Z,44
2023-06-21T13:37:22.000Z,45.1
2023-06-21T13:40:20.509Z,44.9
2023-06-21T13:43:20.546Z,44.7
2023-06-21T13:46:20.566Z,44
2023-06-21T13:49:21.925Z,44.2
2023-06-21T13:52:20.523Z,44.1
2023-06-21T13:55:21.487Z,42.9
2023-06-21T13:58:20.534Z,43.1
2023-06-21T14:01:22.534Z,44.2
2023-06-21T14:04:20.690Z,44.9
2023-06-21T14:07:22.357Z,46.1
2023-06-21T14:10:20.568Z,45.9
2023-06-21T14:13:22.492Z,46.3
2023-06-21T14:16:20.576Z,46
2023-06-21T14:19:20.572Z,45.9
2023-06-21T14:22:20.742Z,46.2
2023-06-21T14:25:20.573Z,46.1
2023-06-21T14:28:20.583Z,46.4
2023-06-21T14:31:20.609Z,45.7
2023-06-21T14:34:20.596Z,46.3
2023-06-21T14:37:20.593Z,45.9
2023-06-21T14:40:20.602Z,46.4
2023-06-21T14:43:20.614Z,46.6
2023-06-21T14:46:20.640Z,47.4
2023-06-21T14:49:20.617Z,47.1
2023-06-21T14:52:20.663Z,46.7
2023-06-21T14:55:20.616Z,46.8
2023-06-21T14:58:20.628Z,46.9
2023-06-21T15:01:21.429Z,46.3
2023-06-21T15:04:20.644Z,45.7
2023-06-21T15:07:20.665Z,45
2023-06-21T15:10:20.649Z,44.6
2023-06-21T15:13:20.650Z,44.5
2023-06-21T15:16:20.653Z,44.5
2023-06-21T15:19:20.669Z,44.5
2023-06-21T15:22:20.665Z,43.8
2023-06-21T15:25:20.682Z,43.6
2023-06-21T15:28:20.670Z,42.7
2023-06-21T15:31:20.693Z,43.1
2023-06-21T15:34:20.721Z,43
2023-06-21T15:37:20.679Z,42.7
2023-06-21T15:40:20.689Z,42.3
2023-06-21T15:43:20.696Z,42.4
2023-06-21T15:46:20.693Z,43.1
2023-06-21T15:49:20.706Z,42.4
2023-06-21T15:52:20.715Z,42.5
2023-06-21T15:55:20.720Z,42.6
2023-06-21T15:58:20.716Z,42.5
2023-06-21T16:01:20.816Z,43
2023-06-21T16:04:20.787Z,43.2
2023-06-21T16:07:20.741Z,43.2
2023-06-21T16:10:20.736Z,43.6
2023-06-21T16:13:27.046Z,43.9
2023-06-21T16:16:20.746Z,44.3
2023-06-21T16:19:20.745Z,44.6
2023-06-21T16:22:20.759Z,45.1
2023-06-21T16:25:20.760Z,45
2023-06-21T16:28:20.767Z,45.3
2023-06-21T16:31:20.948Z,45.5
2023-06-21T16:34:20.784Z,45.1
2023-06-21T16:37:20.787Z,46
2023-06-21T16:40:20.779Z,46.5
2023-06-21T16:43:20.803Z,46.1
2023-06-21T16:46:20.839Z,46.4
2023-06-21T16:49:25.332Z,45.9
2023-06-21T16:52:20.804Z,45.8
2023-06-21T16:55:20.804Z,45.5
2023-06-21T16:58:20.809Z,45.8
2023-06-21T17:01:20.835Z,46
2023-06-21T17:04:20.821Z,44.9
2023-06-21T17:07:20.838Z,45
2023-06-21T17:10:20.829Z,44.1
2023-06-21T17:13:20.845Z,44.5
2023-06-21T17:16:20.844Z,45
2023-06-21T17:19:20.860Z,45.4
2023-06-21T17:22:20.850Z,45.7
2023-06-21T17:25:20.866Z,46
2023-06-21T17:28:20.857Z,45.7
2023-06-21T17:31:20.902Z,45.8
2023-06-21T17:34:20.884Z,45.7
2023-06-21T17:37:20.882Z,45.9
2023-06-21T17:40:20.882Z,45.2
2023-06-21T17:43:20.889Z,45.1
2023-06-21T17:46:20.895Z,45
2023-06-21T17:49:20.899Z,45.4
2023-06-21T17:52:20.900Z,45.2
2023-06-21T17:55:20.895Z,45
2023-06-21T17:58:20.909Z,45.5
2023-06-21T18:01:20.937Z,45.6
2023-06-21T18:04:21.143Z,45.8
2023-06-21T18:07:20.928Z,45.9
2023-06-21T18:10:20.935Z,46.3
2023-06-21T18:13:20.923Z,46.3
2023-06-21T18:16:20.930Z,47
2023-06-21T18:19:20.935Z,48.3
2023-06-21T18:22:30.125Z,49
2023-06-21T18:25:20.960Z,49.8
2023-06-21T18:28:20.952Z,50.3
2023-06-21T18:31:20.959Z,50.9
2023-06-21T18:34:20.953Z,51.4
2023-06-21T18:37:20.963Z,52
2023-06-21T18:40:20.964Z,52.5
2023-06-21T18:43:20.971Z,52.9
2023-06-21T18:46:20.971Z,53.3
2023-06-21T18:49:20.975Z,53.7
2023-06-21T18:52:20.988Z,54.1
2023-06-21T18:55:21.008Z,54.4
2023-06-21T18:58:21.003Z,54.7
2023-06-21T19:01:21.002Z,55.2
2023-06-21T19:04:21.179Z,55.5
2023-06-21T19:07:21.020Z,56.1
2023-06-21T19:10:21.013Z,56.3
2023-06-21T19:13:21.030Z,57.1
2023-06-21T19:16:22.705Z,56.9
2023-06-21T19:19:21.034Z,57
2023-06-21T19:22:21.039Z,57.5
2023-06-21T19:25:21.037Z,58.3
2023-06-21T19:28:21.043Z,58.6
2023-06-21T19:31:21.069Z,58.7
2023-06-21T19:34:21.058Z,59.3
2023-06-21T19:37:21.063Z,59.8
2023-06-21T19:40:21.065Z,60
2023-06-21T19:43:21.073Z,60.3
2023-06-21T19:46:21.091Z,60.7
2023-06-21T19:49:21.088Z,61.1
2023-06-21T19:52:21.089Z,61.5
2023-06-21T19:55:21.097Z,61.7
2023-06-21T19:58:21.103Z,62
2023-06-21T20:01:21.135Z,63.1
2023-06-21T20:04:21.139Z,63.6
2023-06-21T20:07:21.124Z,63.7
2023-06-21T20:10:21.129Z,64.4
2023-06-21T20:13:21.118Z,64.9
2023-06-21T20:16:21.135Z,65.5
2023-06-21T20:19:21.383Z,65.9
2023-06-21T20:22:21.131Z,66.2
2023-06-21T20:25:21.150Z,67
2023-06-21T20:28:21.141Z,67
2023-06-21T20:31:21.153Z,67.6
2023-06-21T20:34:21.168Z,68.1
2023-06-21T20:37:21.145Z,68
2023-06-21T20:40:21.150Z,68.1
2023-06-21T20:43:21.158Z,68.2
2023-06-21T20:46:21.165Z,68.6
2023-06-21T20:49:21.187Z,68.9
2023-06-21T20:52:21.178Z,69.3
2023-06-21T20:55:21.181Z,69.7
2023-06-21T20:58:21.187Z,71
2023-06-21T21:01:21.228Z,71.8
2023-06-21T21:04:21.211Z,71.8
2023-06-21T21:07:21.202Z,72
2023-06-21T21:10:21.215Z,72.5
2023-06-21T21:13:21.218Z,72.7
2023-06-21T21:16:21.210Z,72.7
2023-06-21T21:19:21.224Z,72.5
2023-06-21T21:22:21.216Z,72.8
2023-06-21T21:25:21.220Z,72.9
2023-06-21T21:28:21.231Z,73.8
2023-06-21T21:31:21.267Z,74.7
2023-06-21T21:34:21.276Z,75.1
2023-06-21T21:37:21.241Z,75.7
2023-06-21T21:40:21.471Z,75.7
2023-06-21T21:43:21.246Z,76
2023-06-21T21:46:21.268Z,76.3
2023-06-21T21:49:21.275Z,76.4
2023-06-21T21:52:21.267Z,76.6
2023-06-21T21:55:21.287Z,77
2023-06-21T21:58:21.274Z,77.2
2023-06-21T22:01:21.282Z,77.3
2023-06-21T22:04:21.395Z,77.4
2023-06-21T22:07:21.294Z,78.1
2023-06-21T22:10:36.462Z,79
2023-06-21T22:13:21.312Z,78.8
2023-06-21T22:16:21.303Z,79.1
2023-06-21T22:19:21.307Z,78.9
2023-06-21T22:22:21.321Z,78.5
2023-06-21T22:25:21.324Z,78.6
2023-06-21T22:28:21.339Z,79.3
2023-06-21T22:31:21.350Z,80
2023-06-21T22:34:21.345Z,80.7
2023-06-21T22:37:21.329Z,81.5
2023-06-21T22:40:21.347Z,81.5
2023-06-21T22:43:21.360Z,81.3
2023-06-21T22:46:21.371Z,81.4
2023-06-21T22:49:21.369Z,81.9
2023-06-21T22:52:21.367Z,82.6
2023-06-21T22:55:21.361Z,82.4
2023-06-21T22:58:21.364Z,82.2
2023-06-21T23:01:21.379Z,82.3
2023-06-21T23:04:21.472Z,82.2
2023-06-21T23:07:21.414Z,83.1
2023-06-21T23:10:21.406Z,83.2
2023-06-21T23:13:21.387Z,83
2023-06-21T23:16:21.406Z,83.8
2023-06-21T23:19:21.422Z,83.7
2023-06-21T23:22:21.401Z,84.2
2023-06-21T23:25:21.409Z,84.2
2023-06-21T23:28:21.620Z,83.9
2023-06-21T23:31:21.439Z,83.9
2023-06-21T23:34:21.433Z,84.8
2023-06-21T23:37:21.423Z,84.7
2023-06-21T23:40:21.443Z,84.6
2023-06-21T23:43:21.428Z,84.5
2023-06-21T23:46:21.451Z,84.8
2023-06-21T23:49:21.451Z,85.1
2023-06-21T23:52:21.459Z,85
2023-06-21T23:55:21.461Z,85.1
2023-06-21T23:58:21.461Z,85.2
